Flight Track Log - Related Links

Times and Time Zones

All times are in EDT time to prevent confusion due to time zone crossing. See the TAM3042 flight status page for this flight to view local times or setup timezone preferences in your user account.

Time Position Orientation Groundspeed Altitude Reporting Facility
EDT Latitude Longitude Course Direction KTS MPH feet Rate Location/Type
Sun 07:43:15 PM -26.6600 -48.5680 34° Northeast 323 372 14,600  Level FlightAware ADS-B
Sun 07:43:57 PM -26.6080 -48.5280 35° Northeast 324 373 16,800 2,041 Climbing FlightAware ADS-B
Sun 07:44:52 PM -26.5450 -48.4790 35° Northeast 334 384 17,900 725 Climbing FlightAware ADS-B
Sun 07:45:28 PM -26.5060 -48.4500 34° Northeast 334 384 17,900  Level FlightAware ADS-B
Sun 07:46:17 PM -26.4520 -48.4100 34° Northeast 334 384 17,900 3,818 Level FlightAware ADS-B
Sun 07:46:56 PM -26.3770 -48.3500 36° Northeast 367 422 23,500 5,000 Climbing FlightAware ADS-B
Sun 07:47:41 PM -26.3090 -48.2980 34° Northeast 378 435 24,900 1,694 Climbing FlightAware ADS-B
Sun 07:48:21 PM -26.2510 -48.2540 34° Northeast 396 456 25,900 1,200 Climbing FlightAware ADS-B
Sun 07:49:06 PM -26.1780 -48.1980 35° Northeast 420 483 26,600 767 Climbing FlightAware ADS-B
Sun 07:49:47 PM -26.1160 -48.1510 34° Northeast 418 481 27,000 300 Climbing FlightAware ADS-B
Sun 07:50:26 PM -26.0490 -48.0990 35° Northeast 421 484 27,000  Level FlightAware ADS-B
Sun 07:51:11 PM -25.9780 -48.0450 34° Northeast 415 478 27,000  Level FlightAware ADS-B
Sun 07:51:51 PM -25.9180 -47.9920 38° Northeast 421 484 27,000  Level FlightAware ADS-B
Sun 07:52:31 PM -25.8610 -47.9310 44° Northeast 422 486 27,000  Level FlightAware ADS-B
Sun 07:53:11 PM -25.8030 -47.8700 43° Northeast 421 484 27,000  Level FlightAware ADS-B
Sun 07:53:56 PM -25.7390 -47.8030 43° Northeast 422 486 27,000  Level FlightAware ADS-B
Sun 07:54:43 PM -25.6870 -47.7490 43° Northeast 422 486 27,000  Level FlightAware ADS-B
Sun 07:55:29 PM -25.6190 -47.6780 43° Northeast 424 488 27,000  Level FlightAware ADS-B
Sun 07:56:14 PM -25.5560 -47.6120 43° Northeast 423 487 27,000  Level FlightAware ADS-B
Sun 07:56:53 PM -25.5040 -47.5580 43° Northeast 425 489 27,000  Level FlightAware ADS-B
Sun 07:58:13 PM -25.3920 -47.4420 43° Northeast 428 493 27,000  Level FlightAware ADS-B
Sun 07:59:20 PM -25.2860 -47.3320 43° Northeast 435 501 27,000  Level FlightAware ADS-B
Sun 08:00:00 PM -25.2340 -47.2770 44° Northeast 435 501 27,000  Level FlightAware ADS-B
Sun 08:00:25 PM -25.1860 -47.2420 33° Northeast 423 487 27,000  Level FlightAware ADS-B
Sun 08:01:14 PM -25.1030 -47.2090 20° North 420 483 27,000 58 Level FlightAware ADS-B
Sun 08:02:08 PM -25.2430 -47.2870 207° Southwest 435 501 27,100  Climbing FlightAware ADS-B
Sun 08:02:45 PM -24.9310 -47.1400 23° Northeast 421 484 27,000 -512 Descending FlightAware ADS-B
Sun 08:03:30 PM -24.8470 -47.1050 21° North 422 486 26,400 -1,408 Descending FlightAware ADS-B
Sun 08:04:23 PM -24.7520 -47.0670 20° North 396 456 24,700 -1,723 Descending FlightAware ADS-B
Sun 08:05:04 PM -24.6850 -47.0410 19° North 376 433 23,700 -1,933 Descending FlightAware ADS-B
Sun 08:05:53 PM -24.6040 -47.0080 20° North 378 435 21,800 -2,242 Descending FlightAware ADS-B
Sun 08:06:35 PM -24.5350 -46.9800 20° North 373 429 20,300 -2,049 Descending FlightAware ADS-B
Sun 08:07:15 PM -24.4690 -46.9530 20° North 367 422 19,000 -1,317 Descending FlightAware ADS-B
Sun 08:07:57 PM -24.4090 -46.9200 27° Northeast 348 400 18,500 -667 Descending FlightAware ADS-B
Sun 08:08:54 PM -24.3370 -46.8720 31° Northeast 313 360 17,900 -821 Descending FlightAware ADS-B
Sun 08:09:32 PM -24.2950 -46.8390 36° Northeast 310 357 17,200 -867 Descending FlightAware ADS-B
Sun 08:10:17 PM -24.2440 -46.7980 36° Northeast 283 326 16,700 -776 Descending FlightAware ADS-B
Sun 08:10:57 PM -24.2010 -46.7650 35° Northeast 272 313 16,100 -1,013 Descending FlightAware ADS-B
Sun 08:11:34 PM -24.1630 -46.7360 35° Northeast 263 303 15,400 -1,084 Descending FlightAware ADS-B
Sun 08:12:20 PM -24.1180 -46.7020 35° Northeast 260 299 14,600 -940 Descending FlightAware ADS-B
Sun 08:12:57 PM -24.0830 -46.6750 35° Northeast 249 287 14,100 -1,154 Descending FlightAware ADS-B
Sun 08:13:38 PM -24.0430 -46.6450 34° Northeast 249 287 13,100 -1,326 Descending FlightAware ADS-B
Sun 08:14:23 PM -24.0000 -46.6110 36° Northeast 252 290 12,200 -1,187 Descending FlightAware ADS-B
Sun 08:15:09 PM -23.9570 -46.5790 34° Northeast 252 290 11,300 -1,256 Descending FlightAware ADS-B
Sun 08:15:49 PM -23.9180 -46.5490 35° Northeast 249 287 10,400 -1,467 Descending FlightAware ADS-B
Sun 08:16:39 PM -23.8620 -46.5580 352° North 229 264 9,100 -1,286 Descending FlightAware ADS-B
Sun 08:16:59 PM -23.8460 -46.5730 319° Northwest 224 258 8,900 -649 Descending FlightAware ADS-B
Sun 08:17:16 PM -23.8350 -46.5840 318° Northwest 232 267 8,700 -600 Descending FlightAware ADS-B
Sun 08:17:39 PM -23.8150 -46.6030 319° Northwest 233 268 8,500 -436 Descending FlightAware ADS-B
Sun 08:18:11 PM -23.7880 -46.6280 320° Northwest 234 269 8,300 -500 Descending FlightAware ADS-B
Sun 08:18:39 PM -23.7650 -46.6510 318° Northwest 235 270 8,000 -643 Descending FlightAware ADS-B
Sun 08:19:07 PM -23.7390 -46.6700 326° Northwest 242 278 7,700 -692 Descending FlightAware ADS-B
Sun 08:19:31 PM -23.7160 -46.6850 329° Northwest 248 285 7,400 -808 Descending FlightAware ADS-B
Sun 08:19:59 PM -23.6880 -46.7020 331° Northwest 247 284 7,000 -429 Descending FlightAware ADS-B
Sun 08:20:27 PM -23.6600 -46.7210 328° Northwest 247 284 7,000  Level FlightAware ADS-B
Sun 08:20:55 PM -23.6330 -46.7380 330° Northwest 246 283 7,000  Level FlightAware ADS-B
Sun 08:21:11 PM -23.6170 -46.7490 328° Northwest 237 273 7,000 -955 Level FlightAware ADS-B
Sun 08:21:39 PM -23.5930 -46.7650 329° Northwest 228 262 6,300 -1,667 Descending FlightAware ADS-B
Sun 08:22:05 PM -23.5680 -46.7820 328° Northwest 232 267 5,500 -1,000 Descending FlightAware ADS-B
Sun 08:22:33 PM -23.5450 -46.7980 327° Northwest 198 228 5,400 -321 Descending FlightAware ADS-B
Sun 08:23:01 PM -23.5240 -46.8090 334° Northwest 180 207 5,200 -340 Descending FlightAware ADS-B
Sun 08:23:26 PM -23.5070 -46.7960 35° Northeast 193 222 5,100 -150 Descending FlightAware ADS-B
Sun 08:23:41 PM -23.5020 -46.7820 69° East 204 235 5,100 -267 Level FlightAware ADS-B
Sun 08:24:11 PM -23.5040 -46.7510 94° East 207 238 4,900 -261 Descending FlightAware ADS-B
Sun 08:24:27 PM -23.5100 -46.7360 114° Southeast 217 250 4,900 -429 Level FlightAware ADS-B
Sun 08:24:39 PM -23.5210 -46.7280 146° Southeast 220 253 4,700 -1,143 Descending FlightAware ADS-B
Sun 08:25:09 PM -23.5470 -46.7120 151° Southeast 201 231 4,100 -1,034 Descending FlightAware ADS-B
Sun 08:25:37 PM -23.5660 -46.6990 148° Southeast 168 193 3,700 -857 Descending FlightAware ADS-B
Sun 08:26:05 PM -23.5830 -46.6870 147° Southeast 149 171 3,300 -737 Descending FlightAware ADS-B
Sun 08:26:34 PM -23.5990 -46.6760 148° Southeast 137 158 3,000 -667 Descending FlightAware ADS-B
Sun 08:26:59 PM -23.6120 -46.6670 148° Southeast 133 153 2,700 -556 Descending FlightAware ADS-B
Sun 08:27:28 PM -23.6220 -46.6600 147° Southeast 133 153 2,500 -200 Descending FlightAware ADS-B
Sun 08:27:59 PM -23.6160 -46.6470 63° Northeast 134 154 2,500  Level FlightAware ADS-B
Sun 08:29:23 PM -23.6290 -46.6560 212° Southwest 127 146 -1,786 Descending FlightAware ADS-B
Sun 08:29:44 PM -23.6280 -46.6570 318° Northwest 127 146  Level FlightAware ADS-B
Sun 08:30:34 PM -23.6270 -46.6420 86° East 127 146  Level FlightAware ADS-B
Sun 08:33:00 PM -23.6267 -46.6554 271° West  Level Estimated
Sun 08:34:00 PM -23.6267 -46.6554 114° Southeast  Level Estimated
Sun 08:35:00 PM -23.6267 -46.6554 114° Southeast  Level Estimated
Sun 08:36:00 PM -23.6267 -46.6554 114° Southeast  Level Estimated
Sun 08:37:00 PM -23.6267 -46.6554 114° Southeast  Level Estimated
Sun 08:38:00 PM -23.6267 -46.6554 114° Southeast  Level Estimated
Sun 08:39:00 PM -23.6267 -46.6554 114° Southeast  Level Estimated
Sun 08:40:00 PM -23.6267 -46.6554 114° Southeast  Level Estimated

Login

Don't have an account? Register now (free) for customized features, flight alerts, and more!